Time;durP1;ratioP1;P1;durP2;ratioP2;P2;SDS_P1;SDS_P2;PMS_P1;PMS_P2;Temp;Humidity;BMP_temperature;BMP_pressure;BME280_temperature;BME280_humidity;BME280_pressure;Samples;Min_cycle;Max_cycle;Signal;HPM_P1;HPM_P2
2023/10/10 00:00:07;;;;;;;30.00;9.80;;;;;;;10.66;55.07;99284.88;135006;1285;22551;-63
2023/10/10 00:03:31;;;;;;;28.30;10.00;;;;;;;10.66;55.23;99295.37;135002;1284;25542;-62
2023/10/10 00:06:38;;;;;;;31.60;11.00;;;;;;;10.57;55.51;99298.67;135027;1284;22540;-62
2023/10/10 00:09:44;;;;;;;26.70;10.60;;;;;;;10.66;55.41;99294.65;134982;1284;22557;-63
2023/10/10 00:12:47;;;;;;;30.30;11.00;;;;;;;10.76;55.46;99294.30;135008;1284;23682;-62
2023/10/10 00:15:51;;;;;;;39.80;12.20;;;;;;;10.81;55.27;99290.41;134993;1284;22543;-62
2023/10/10 00:18:56;;;;;;;33.40;10.80;;;;;;;10.77;55.47;99289.88;135030;1285;22539;-60
2023/10/10 00:21:59;;;;;;;27.90;10.30;;;;;;;10.78;55.25;99296.33;134983;1284;22565;-60
2023/10/10 00:25:07;;;;;;;25.90;9.70;;;;;;;10.73;55.44;99290.80;134983;1285;22552;-60
2023/10/10 00:28:18;;;;;;;24.80;10.00;;;;;;;10.82;55.17;99287.90;134987;1284;22709;-63
2023/10/10 00:31:21;;;;;;;24.60;9.50;;;;;;;10.83;55.12;99284.69;134976;1285;22533;-62
2023/10/10 00:34:30;;;;;;;25.30;9.60;;;;;;;10.81;55.03;99283.58;134990;1285;22539;-63
2023/10/10 00:37:34;;;;;;;53.20;22.50;;;;;;;10.84;54.95;99285.33;135017;1285;22903;-62
2023/10/10 00:40:39;;;;;;;42.60;19.10;;;;;;;10.89;54.92;99283.11;134945;1285;22566;-63
2023/10/10 00:43:41;;;;;;;35.80;14.40;;;;;;;10.88;54.71;99277.90;135003;1285;25351;-63
2023/10/10 00:46:44;;;;;;;28.20;11.60;;;;;;;10.85;54.98;99281.22;135008;1285;22553;-65
2023/10/10 00:49:47;;;;;;;26.60;10.30;;;;;;;10.91;54.80;99281.25;135009;1285;22526;-63
2023/10/10 00:52:50;;;;;;;27.70;11.10;;;;;;;10.83;54.77;99282.36;135759;1277;22553;-63
2023/10/10 00:55:56;;;;;;;24.30;9.50;;;;;;;10.90;54.72;99280.27;135513;1254;22536;-64
2023/10/10 00:58:59;;;;;;;32.20;11.90;;;;;;;10.99;54.80;99268.57;135700;1277;22540;-55
2023/10/10 01:02:03;;;;;;;41.50;15.00;;;;;;;11.08;54.73;99264.92;135785;1277;22542;-62
2023/10/10 01:05:12;;;;;;;34.30;14.50;;;;;;;11.10;54.42;99262.04;135818;1277;22551;-63
2023/10/10 01:08:17;;;;;;;41.60;16.70;;;;;;;11.08;54.44;99261.58;135769;1277;22531;-63
2023/10/10 01:11:19;;;;;;;31.60;12.50;;;;;;;11.17;54.14;99261.09;135768;1277;22535;-63
2023/10/10 01:14:26;;;;;;;27.70;11.30;;;;;;;11.16;54.00;99255.05;135735;1277;22538;-62
2023/10/10 01:17:33;;;;;;;26.20;10.10;;;;;;;11.00;54.06;99260.30;135737;1277;22533;-63
2023/10/10 01:20:37;;;;;;;24.90;10.70;;;;;;;10.99;54.27;99258.73;135753;1277;22526;-63
2023/10/10 01:23:40;;;;;;;26.70;10.70;;;;;;;10.96;54.41;99262.64;135723;1277;22526;-61
2023/10/10 01:26:45;;;;;;;;;;;;;;;10.92;54.43;99264.77;135766;1277;22611;-63
2023/10/10 01:29:50;;;;;;;38.80;11.40;;;;;;;10.89;54.33;99267.85;135746;1277;25490;-63
2023/10/10 01:32:53;;;;;;;43.10;11.80;;;;;;;10.78;54.69;99265.15;135746;1277;22548;-63
2023/10/10 01:35:56;;;;;;;27.50;10.70;;;;;;;10.80;54.53;99270.65;135668;1261;24349;-63
2023/10/10 01:38:59;;;;;;;25.20;10.30;;;;;;;10.84;54.53;99277.81;135759;1277;23924;-61
2023/10/10 01:42:02;;;;;;;26.70;9.70;;;;;;;10.82;54.67;99278.08;135730;1278;24197;-62
2023/10/10 01:45:08;;;;;;;22.50;9.20;;;;;;;10.85;54.73;99279.83;135792;1277;22542;-62
2023/10/10 01:48:11;;;;;;;28.10;9.30;;;;;;;10.87;54.61;99277.27;135720;1277;25417;-63
2023/10/10 01:51:15;;;;;;;;;;;;;;;10.85;54.54;99275.64;135780;1277;22603;-62
2023/10/10 01:54:19;;;;;;;31.70;9.10;;;;;;;10.89;54.32;99276.31;135773;1277;24204;-63
2023/10/10 01:57:26;;;;;;;36.80;10.00;;;;;;;10.81;54.82;99274.98;135773;1277;22526;-62
2023/10/10 02:00:34;;;;;;;27.20;9.00;;;;;;;10.85;54.70;99273.05;135721;1277;25403;-61
2023/10/10 02:03:39;;;;;;;22.90;9.10;;;;;;;10.81;54.64;99276.20;135782;1277;22583;-63
2023/10/10 02:06:45;;;;;;;23.90;8.30;;;;;;;10.86;54.53;99274.01;135771;1277;22523;-64
2023/10/10 02:09:53;;;;;;;21.80;8.20;;;;;;;10.88;54.67;99273.52;135784;1277;22535;-64
2023/10/10 02:12:58;;;;;;;23.70;7.90;;;;;;;10.82;54.62;99277.38;135726;1277;25417;-64
2023/10/10 02:16:01;;;;;;;25.10;7.90;;;;;;;10.84;54.55;99283.06;135773;1277;25493;-64
2023/10/10 02:19:15;;;;;;;;;;;;;;;10.85;54.49;99283.53;135693;1277;22514;-63
2023/10/10 02:22:23;;;;;;;43.70;9.80;;;;;;;10.72;54.53;99283.34;135790;1277;22554;-63
2023/10/10 02:25:46;;;;;;;24.20;8.90;;;;;;;10.76;54.44;99283.84;135785;1278;22549;-63
2023/10/10 02:28:49;;;;;;;22.70;8.60;;;;;;;10.78;54.34;99284.94;135737;1277;25412;-64
2023/10/10 02:32:06;;;;;;;36.60;14.50;;;;;;;10.84;54.27;99283.36;135768;1277;22668;-64
2023/10/10 02:35:26;;;;;;;28.40;10.50;;;;;;;10.97;53.86;99285.67;135764;1277;22538;-63
2023/10/10 02:38:39;;;;;;;37.20;11.80;;;;;;;10.91;54.23;99287.59;135754;1277;22579;-61
2023/10/10 02:41:48;;;;;;;42.20;10.20;;;;;;;10.92;54.08;99292.23;135805;1277;22582;-65
2023/10/10 02:44:57;;;;;;;33.00;8.40;;;;;;;10.90;54.05;99291.30;135783;1277;25385;-64
2023/10/10 02:48:00;;;;;;;43.60;8.70;;;;;;;10.88;53.98;99292.84;135747;1277;25421;-62
2023/10/10 02:51:07;;;;;;;31.00;9.20;;;;;;;10.87;54.24;99290.77;135634;1277;25415;-64
2023/10/10 02:54:21;;;;;;;22.00;8.90;;;;;;;10.97;54.08;99291.64;135806;1278;22530;-59
2023/10/10 02:57:30;;;;;;;19.60;6.40;;;;;;;10.94;53.99;99291.41;135566;1277;23321;-65
2023/10/10 03:00:34;;;;;;;18.30;5.70;;;;;;;11.01;54.04;99293.83;135744;1277;22606;-64
2023/10/10 03:03:40;;;;;;;20.80;6.10;;;;;;;11.00;53.95;99294.08;135720;1277;22589;-64
2023/10/10 03:06:44;;;;;;;41.70;6.60;;;;;;;10.98;54.27;99296.98;135752;1277;22530;-64
2023/10/10 03:13:13;;;;;;;38.20;6.30;;;;;;;10.94;53.92;99306.11;135679;1260;22549;-64
2023/10/10 03:19:38;;;;;;;19.40;6.90;;;;;;;10.92;53.84;99307.42;135645;1277;22533;-63
2023/10/10 03:23:09;;;;;;;19.30;6.00;;;;;;;10.98;53.85;99306.05;135760;1277;24053;-64
2023/10/10 03:26:19;;;;;;;20.40;6.80;;;;;;;11.11;53.69;99310.46;135763;1278;22546;-64
2023/10/10 03:29:36;;;;;;;18.20;5.90;;;;;;;11.10;53.49;99314.70;135715;1277;26496;-64
2023/10/10 03:32:59;;;;;;;23.20;6.60;;;;;;;11.02;53.72;99319.17;135732;1277;22541;-64
2023/10/10 03:36:08;;;;;;;44.30;6.80;;;;;;;11.00;53.77;99319.08;135812;1278;22537;-63
2023/10/10 03:39:24;;;;;;;21.50;6.70;;;;;;;10.93;53.95;99311.56;135722;1278;26529;-59
2023/10/10 05:26:18;;;;;;;36.60;9.20;;;;;;;10.63;54.13;99354.98;135713;1277;22542;-65
2023/10/10 05:29:21;;;;;;;23.00;8.70;;;;;;;10.66;54.12;99356.93;135746;1277;22526;-64
2023/10/10 05:32:27;;;;;;;29.50;8.70;;;;;;;10.71;54.04;99365.43;135770;1277;22543;-64
2023/10/10 05:35:29;;;;;;;21.40;7.80;;;;;;;10.73;54.28;99364.96;135748;1277;22537;-64
2023/10/10 05:38:32;;;;;;;;;;;;;;;10.74;54.35;99360.70;135720;1278;24384;-65
2023/10/10 05:41:40;;;;;;;21.50;6.90;;;;;;;10.77;54.64;99362.66;135764;1278;23032;-65
2023/10/10 05:44:44;;;;;;;22.20;7.90;;;;;;;10.85;54.80;99362.08;135794;1277;25459;-63
2023/10/10 05:47:46;;;;;;;26.50;7.90;;;;;;;10.99;54.91;99359.71;135753;1277;22566;-64
2023/10/10 05:50:49;;;;;;;27.60;8.20;;;;;;;11.16;54.60;99363.89;135772;1277;22522;-64
2023/10/10 05:53:51;;;;;;;25.80;7.20;;;;;;;11.29;54.36;99363.70;135596;1277;25614;-64
2023/10/10 05:56:54;;;;;;;20.00;7.40;;;;;;;11.34;54.48;99362.89;135698;1278;22530;-64
2023/10/10 05:59:58;;;;;;;21.70;6.90;;;;;;;11.48;54.52;99364.77;135743;1277;22557;-65
2023/10/10 06:03:00;;;;;;;20.50;7.40;;;;;;;11.59;54.34;99370.63;135640;1277;22578;-64
2023/10/10 06:06:03;;;;;;;22.00;7.70;;;;;;;11.65;54.42;99378.00;135743;1277;22513;-64
2023/10/10 06:09:06;;;;;;;21.70;7.80;;;;;;;11.76;54.12;99380.85;135727;1278;24370;-64
2023/10/10 06:12:09;;;;;;;22.50;7.80;;;;;;;11.88;54.21;99384.42;135743;1278;25418;-64
2023/10/10 06:15:12;;;;;;;24.30;8.40;;;;;;;11.99;54.15;99383.08;135742;1277;25417;-64
2023/10/10 06:18:14;;;;;;;22.40;7.90;;;;;;;12.14;54.17;99383.11;135744;1277;24209;-64
2023/10/10 06:21:18;;;;;;;25.50;8.60;;;;;;;12.25;54.21;99386.70;135771;1278;22537;-63
2023/10/10 06:24:20;;;;;;;23.60;9.40;;;;;;;12.31;54.37;99386.48;135746;1277;25411;-63
2023/10/10 06:27:28;;;;;;;23.00;8.60;;;;;;;12.45;54.01;99376.86;135760;1278;22546;-63
2023/10/10 06:30:31;;;;;;;23.10;7.90;;;;;;;12.58;54.21;99374.89;135625;1278;24036;-64
2023/10/10 06:33:33;;;;;;;25.40;9.20;;;;;;;12.83;54.12;99377.24;135717;1278;25348;-63
2023/10/10 06:36:37;;;;;;;25.80;9.60;;;;;;;13.04;53.66;99378.25;135767;1268;22537;-64
2023/10/10 06:39:54;;;;;;;24.30;9.10;;;;;;;13.19;53.30;99379.75;135747;1277;22606;-64
2023/10/10 06:42:56;;;;;;;22.50;8.60;;;;;;;13.38;53.55;99383.52;135733;1277;25595;-64
2023/10/10 06:45:59;;;;;;;24.20;9.30;;;;;;;13.46;53.60;99383.52;135771;1278;22701;-64
2023/10/10 06:49:04;;;;;;;23.40;8.90;;;;;;;13.59;53.45;99382.71;135759;1277;22571;-62
2023/10/10 06:52:07;;;;;;;24.90;10.10;;;;;;;13.83;53.17;99382.90;135709;1277;22695;-63
2023/10/10 06:55:12;;;;;;;25.60;10.20;;;;;;;13.92;53.39;99385.11;135615;1277;22750;-64
2023/10/10 06:58:16;;;;;;;28.00;10.40;;;;;;;13.99;53.05;99378.68;135705;1278;22520;-65
2023/10/10 07:01:19;;;;;;;26.50;10.50;;;;;;;14.07;53.04;99383.80;135716;1277;22524;-63
2023/10/10 07:04:21;;;;;;;25.50;10.30;;;;;;;13.96;52.97;99381.87;135749;1278;25605;-62
2023/10/10 07:07:26;;;;;;;25.70;10.50;;;;;;;13.93;53.41;99378.94;135723;1277;22520;-62
2023/10/10 07:10:36;;;;;;;24.70;10.10;;;;;;;14.15;53.47;99379.93;135754;1278;22527;-63
2023/10/10 07:13:44;;;;;;;25.50;10.20;;;;;;;14.29;53.12;99376.56;135754;1278;22516;-64
2023/10/10 07:16:46;;;;;;;25.30;9.70;;;;;;;14.52;53.21;99380.08;135761;1278;22527;-62
2023/10/10 07:23:07;;;;;;;23.90;9.70;;;;;;;14.85;52.49;99375.70;135369;1278;22534;-63
2023/10/10 07:26:18;;;;;;;24.80;9.60;;;;;;;15.02;52.60;99377.49;135590;1277;23438;-63
2023/10/10 07:29:27;;;;;;;25.30;10.20;;;;;;;15.29;52.62;99377.41;135756;1278;22605;-59
2023/10/10 07:32:30;;;;;;;24.40;10.60;;;;;;;15.38;52.19;99378.35;135771;1277;25479;-63
2023/10/10 07:35:36;;;;;;;25.40;10.30;;;;;;;15.42;52.40;99381.73;135747;1277;22545;-64
2023/10/10 07:38:38;;;;;;;23.00;8.90;;;;;;;15.48;52.14;99379.00;135742;1278;22549;-63
2023/10/10 07:41:44;;;;;;;25.60;10.30;;;;;;;15.64;52.06;99377.87;135629;1277;22550;-59
2023/10/10 07:44:47;;;;;;;24.90;9.30;;;;;;;15.92;52.21;99378.13;135800;1278;25493;-63
2023/10/10 07:51:10;;;;;;;23.30;9.30;;;;;;;16.39;51.43;99382.17;135712;1277;22533;-64
2023/10/10 07:54:12;;;;;;;22.70;8.60;;;;;;;16.33;51.07;99385.48;135772;1278;22635;-63
2023/10/10 07:57:21;;;;;;;22.60;8.40;;;;;;;16.41;50.93;99387.16;135573;1277;25246;-63
2023/10/10 08:00:26;;;;;;;21.10;8.40;;;;;;;16.49;51.17;99388.83;135753;1277;22531;-62
2023/10/10 08:03:31;;;;;;;21.80;7.70;;;;;;;16.58;50.69;99391.31;135759;1277;22534;-64
2023/10/10 08:06:34;;;;;;;20.50;7.60;;;;;;;16.61;50.68;99386.67;135754;1277;24224;-63
2023/10/10 08:09:37;;;;;;;20.90;7.40;;;;;;;16.76;50.61;99385.75;135773;1277;22534;-63
2023/10/10 08:12:40;;;;;;;21.10;7.70;;;;;;;16.87;50.33;99396.02;135759;1278;22664;-63
2023/10/10 08:15:56;;;;;;;;;;;;;;;16.85;49.99;99399.16;135693;1278;22515;-63
2023/10/10 08:19:04;;;;;;;23.90;8.80;;;;;;;16.84;50.28;99404.51;135712;1277;22599;-62
2023/10/10 08:22:12;;;;;;;23.00;8.40;;;;;;;16.84;50.40;99399.97;135704;1278;22545;-64
2023/10/10 08:25:15;;;;;;;20.90;7.90;;;;;;;16.82;50.01;99404.50;135700;1278;22659;-63
2023/10/10 08:28:18;;;;;;;22.60;8.70;;;;;;;16.57;49.69;99405.32;135769;1277;22660;-63
2023/10/10 08:31:22;;;;;;;;;;;;;;;16.40;50.47;99407.38;135809;1277;22598;-64
2023/10/10 08:34:25;;;;;;;21.20;8.20;;;;;;;16.39;50.49;99411.47;135716;1277;22540;-64
2023/10/10 08:37:27;;;;;;;20.10;7.50;;;;;;;16.44;50.51;99410.21;135761;1277;22594;-64
2023/10/10 08:40:30;;;;;;;20.10;7.40;;;;;;;16.51;50.94;99406.68;135758;1278;22558;-63
2023/10/10 08:43:32;;;;;;;20.80;7.80;;;;;;;16.68;50.32;99403.83;135792;1277;26653;-64
2023/10/10 08:46:40;;;;;;;21.90;8.60;;;;;;;16.73;50.40;99403.80;135754;1278;22566;-63
2023/10/10 08:49:47;;;;;;;23.00;8.90;;;;;;;16.86;50.18;99407.35;135763;1277;22533;-62
2023/10/10 08:52:49;;;;;;;21.60;8.40;;;;;;;16.92;49.85;99409.38;135763;1278;22563;-64
2023/10/10 08:55:56;;;;;;;21.40;8.60;;;;;;;16.83;50.09;99410.24;135737;1278;22547;-61
2023/10/10 08:59:01;;;;;;;22.80;9.40;;;;;;;17.01;50.02;99408.92;135782;1277;22543;-63
2023/10/10 09:02:05;;;;;;;23.60;9.40;;;;;;;17.25;49.47;99407.13;135731;1277;23424;-64
2023/10/10 09:05:07;;;;;;;24.10;9.00;;;;;;;17.56;49.06;99407.19;135821;1277;22670;-63
2023/10/10 09:08:16;;;;;;;22.50;9.00;;;;;;;17.77;48.73;99406.23;135735;1277;22553;-63
2023/10/10 09:11:20;;;;;;;23.50;9.40;;;;;;;17.93;48.43;99404.58;135727;1277;23425;-63
2023/10/10 09:14:22;;;;;;;23.50;9.00;;;;;;;18.02;47.91;99405.81;135716;1277;22540;-62
2023/10/10 09:17:28;;;;;;;;;;;;;;;18.10;48.06;99400.90;135772;1278;22524;-63
2023/10/10 09:20:32;;;;;;;24.60;10.10;;;;;;;18.21;48.19;99402.63;135770;1277;22541;-64
2023/10/10 09:23:42;;;;;;;23.70;9.90;;;;;;;18.36;48.09;99405.79;135728;1277;25404;-64
2023/10/10 09:26:50;;;;;;;22.80;10.00;;;;;;;18.57;47.94;99403.71;135820;1278;25421;-63
2023/10/10 09:29:56;;;;;;;24.20;9.90;;;;;;;18.76;47.34;99403.49;135751;1277;22549;-63
2023/10/10 09:33:00;;;;;;;24.30;9.90;;;;;;;18.83;46.71;99406.42;135799;1277;22561;-63
2023/10/10 09:36:09;;;;;;;23.70;9.70;;;;;;;18.89;47.01;99407.00;135783;1277;22541;-62
2023/10/10 09:39:26;;;;;;;22.70;9.70;;;;;;;18.93;47.01;99414.09;135767;1278;22598;-64
2023/10/10 09:42:44;;;;;;;21.80;8.80;;;;;;;18.93;46.57;99413.41;135733;1277;22530;-63
2023/10/10 09:45:58;;;;;;;21.50;8.30;;;;;;;18.96;46.76;99414.36;135784;1269;24235;-63
2023/10/10 09:49:28;;;;;;;22.50;8.50;;;;;;;18.92;45.97;99411.52;135755;1278;22646;-63
2023/10/10 09:52:53;;;;;;;21.90;9.20;;;;;;;18.80;46.67;99417.08;135773;1277;22522;-63
2023/10/10 09:56:01;;;;;;;19.60;7.50;;;;;;;18.97;46.96;99415.51;135727;1277;22556;-63
2023/10/10 09:59:07;;;;;;;20.90;8.00;;;;;;;19.10;46.30;99414.45;135772;1277;22562;-62
2023/10/10 10:02:14;;;;;;;20.60;8.10;;;;;;;19.18;46.99;99418.29;135770;1277;22584;-63
2023/10/10 10:05:19;;;;;;;21.40;8.20;;;;;;;19.31;46.29;99421.06;135773;1277;22540;-63
2023/10/10 10:08:22;;;;;;;21.00;8.30;;;;;;;19.49;46.07;99418.79;135728;1277;22550;-61
2023/10/10 10:11:26;;;;;;;23.60;9.40;;;;;;;19.49;46.19;99409.77;135698;1277;27166;-63
2023/10/10 10:14:28;;;;;;;22.50;8.90;;;;;;;19.54;46.14;99411.08;135741;1277;25400;-63
2023/10/10 10:17:45;;;;;;;21.10;8.20;;;;;;;19.67;45.88;99407.58;135673;1277;22540;-63
2023/10/10 10:21:04;;;;;;;23.00;9.20;;;;;;;19.69;45.36;99400.12;135756;1277;22533;-63
2023/10/10 10:24:16;;;;;;;22.60;8.60;;;;;;;19.76;45.19;99400.45;135762;1278;22600;-63
2023/10/10 10:27:24;;;;;;;26.00;9.40;;;;;;;19.64;45.38;99395.13;135743;1277;22556;-63
2023/10/10 10:30:46;;;;;;;26.70;10.80;;;;;;;19.62;45.49;99395.98;135745;1277;22534;-63
2023/10/10 10:33:52;;;;;;;24.70;10.00;;;;;;;19.45;45.61;99393.41;135692;1277;22543;-63
2023/10/10 10:36:55;;;;;;;23.60;9.80;;;;;;;19.34;45.81;99386.25;135748;1277;22560;-63
2023/10/10 10:43:20;;;;;;;24.80;10.50;;;;;;;19.86;45.22;99375.98;135732;1277;22660;-62
2023/10/10 10:46:27;;;;;;;23.90;10.80;;;;;;;19.92;45.33;99372.42;135752;1278;22686;-60
2023/10/10 10:49:32;;;;;;;24.20;9.80;;;;;;;19.92;44.85;99370.30;135770;1277;22551;-60
2023/10/10 10:52:43;;;;;;;27.50;10.60;;;;;;;20.01;44.80;99368.86;135744;1277;22521;-60
2023/10/10 10:55:52;;;;;;;26.70;11.20;;;;;;;20.07;44.70;99369.27;135755;1277;22533;-61
2023/10/10 10:59:12;;;;;;;25.80;10.10;;;;;;;20.38;44.32;99365.33;135673;1277;22553;-62
2023/10/10 11:02:15;;;;;;;25.30;10.40;;;;;;;20.53;43.84;99362.88;135757;1277;25252;-59
2023/10/10 11:05:17;;;;;;;25.10;10.50;;;;;;;20.30;44.08;99369.98;135731;1278;22536;-60
2023/10/10 11:08:50;;;;;;;;;;;;;;;20.16;44.71;99372.70;135772;1277;22555;-60
2023/10/10 11:11:43;;;;;;;23.80;9.60;;;;;;;20.26;44.31;99374.59;135782;1277;22531;-62
2023/10/10 11:14:46;;;;;;;23.50;10.00;;;;;;;20.35;44.44;99369.70;135737;1277;22546;-63
2023/10/10 11:17:48;;;;;;;24.60;10.70;;;;;;;20.49;44.06;99360.02;135735;1277;22557;-59
2023/10/10 11:20:59;;;;;;;;;;;;;;;20.65;43.66;99354.45;135648;1277;22613;-57
2023/10/10 11:24:04;;;;;;;24.00;9.80;;;;;;;20.76;43.60;99351.52;135774;1277;22561;-63
2023/10/10 11:27:14;;;;;;;27.30;13.60;;;;;;;20.82;43.30;99352.34;135789;1277;22530;-64
2023/10/10 11:30:24;;;;;;;28.70;13.90;;;;;;;20.75;43.24;99350.12;135719;1277;22530;-64
2023/10/10 11:33:26;;;;;;;24.80;10.90;;;;;;;20.61;43.32;99354.65;135610;1277;212635;-63
2023/10/10 11:36:37;;;;;;;;;;;;;;;20.58;43.76;99354.05;135756;1278;22507;-64
2023/10/10 11:39:46;;;;;;;23.90;10.00;;;;;;;20.65;43.46;99355.21;135763;1277;22541;-63
2023/10/10 11:42:49;;;;;;;24.40;10.30;;;;;;;20.67;43.38;99355.69;135751;1277;22534;-62
2023/10/10 11:45:53;;;;;;;;;;;;;;;20.74;43.08;99352.73;135760;1277;22511;-62
2023/10/10 11:48:55;;;;;;;24.50;10.50;;;;;;;20.71;43.10;99345.77;135717;1277;22542;-62
2023/10/10 11:51:59;;;;;;;24.90;10.50;;;;;;;20.80;43.57;99346.17;135759;1277;22533;-63
2023/10/10 11:55:07;;;;;;;24.00;10.60;;;;;;;20.95;43.32;99344.70;135655;1277;22546;-63
2023/10/10 11:58:16;;;;;;;23.90;10.50;;;;;;;20.97;42.81;99342.52;135729;1277;22553;-62
2023/10/10 12:01:47;;;;;;;24.30;10.00;;;;;;;21.03;42.96;99341.50;135753;1277;22523;-63
2023/10/10 12:04:44;;;;;;;24.50;11.10;;;;;;;21.16;42.34;99338.23;135733;1277;22527;-63
2023/10/10 12:07:47;;;;;;;25.90;9.80;;;;;;;20.99;42.96;99340.64;135721;1277;25415;-63
2023/10/10 12:10:52;;;;;;;;;;;;;;;21.14;42.12;99333.30;135751;1277;22539;-62
2023/10/10 12:13:56;;;;;;;22.90;9.70;;;;;;;21.06;42.18;99331.91;135749;1260;22572;-63
2023/10/10 12:16:58;;;;;;;24.30;9.90;;;;;;;20.97;42.38;99329.41;135649;1277;22533;-63
2023/10/10 12:20:04;;;;;;;;;;;;;;;21.12;42.33;99329.08;135705;1277;22533;-62
2023/10/10 12:23:07;;;;;;;23.10;10.00;;;;;;;21.18;42.55;99325.80;135732;1277;22533;-63
2023/10/10 12:26:10;;;;;;;23.40;9.10;;;;;;;21.26;42.63;99325.39;135763;1277;25417;-62
2023/10/10 12:29:14;;;;;;;24.00;9.00;;;;;;;21.27;42.64;99322.77;135792;1277;22519;-61
2023/10/10 12:32:18;;;;;;;22.60;9.60;;;;;;;21.29;42.90;99324.20;135803;1277;22560;-62
2023/10/10 12:35:24;;;;;;;24.60;10.10;;;;;;;21.28;42.52;99325.69;135759;1277;22542;-63
2023/10/10 12:38:32;;;;;;;23.10;9.30;;;;;;;21.19;42.82;99329.67;135751;1277;22605;-62
2023/10/10 12:41:45;;;;;;;24.60;9.90;;;;;;;21.06;42.59;99327.84;135705;1277;22631;-63
2023/10/10 12:44:48;;;;;;;23.90;9.40;;;;;;;20.98;42.71;99327.52;135748;1277;22545;-63
2023/10/10 12:47:51;;;;;;;27.50;12.20;;;;;;;21.01;42.69;99319.77;135803;1277;22553;-62
2023/10/10 12:50:53;;;;;;;;;;;;;;;21.05;42.98;99320.32;135718;1277;22682;-61
2023/10/10 12:54:00;;;;;;;26.00;9.70;;;;;;;21.16;42.69;99318.95;135740;1277;23967;-63
2023/10/10 12:57:06;;;;;;;24.30;9.20;;;;;;;21.15;42.77;99321.09;135737;1277;22647;-58
2023/10/10 13:00:24;;;;;;;25.90;9.80;;;;;;;21.28;42.65;99318.73;135820;1277;22520;-62
2023/10/10 13:03:28;;;;;;;24.70;9.60;;;;;;;21.22;42.34;99316.84;135764;1277;22529;-62
2023/10/10 13:06:31;;;;;;;26.70;10.30;;;;;;;21.07;42.73;99314.58;135814;1277;22545;-63
2023/10/10 13:09:33;;;;;;;25.30;9.60;;;;;;;21.23;42.79;99309.66;135773;1277;25412;-62
2023/10/10 13:12:36;;;;;;;;;;;;;;;21.41;42.59;99306.45;135820;1277;24392;-63
2023/10/10 13:15:50;;;;;;;25.50;9.90;;;;;;;21.25;42.62;99301.80;135797;1277;22534;-64
2023/10/10 13:18:53;;;;;;;26.40;10.30;;;;;;;21.27;42.46;99294.35;135789;1277;22530;-63
2023/10/10 13:21:57;;;;;;;;;;;;;;;21.28;42.57;99295.13;135767;1277;22628;-63
2023/10/10 13:25:00;;;;;;;24.10;9.60;;;;;;;21.21;42.78;99292.20;135796;1277;22551;-63
2023/10/10 13:28:09;;;;;;;;;;;;;;;21.20;42.65;99290.52;135767;1277;22512;-64
2023/10/10 13:31:11;;;;;;;26.00;10.30;;;;;;;21.24;42.57;99291.06;135778;1277;25398;-63
2023/10/10 13:34:16;;;;;;;;;;;;;;;21.18;42.61;99292.95;135780;1277;24212;-63
2023/10/10 13:37:19;;;;;;;26.70;9.70;;;;;;;21.23;42.55;99292.98;135785;1277;22538;-63
2023/10/10 13:40:22;;;;;;;24.90;10.30;;;;;;;21.13;42.53;99295.81;135793;1277;22541;-63
2023/10/10 13:43:26;;;;;;;26.30;11.20;;;;;;;21.04;42.73;99295.30;135786;1277;22552;-63
2023/10/10 13:46:28;;;;;;;25.60;11.00;;;;;;;20.85;42.81;99294.66;135782;1277;23715;-63
2023/10/10 13:49:31;;;;;;;;;;;;;;;20.78;42.85;99293.74;135801;1277;22530;-63
2023/10/10 13:52:33;;;;;;;27.10;10.90;;;;;;;20.68;43.13;99297.58;135795;1277;22523;-63
2023/10/10 13:55:38;;;;;;;;;;;;;;;20.66;43.29;99294.64;135790;1277;22531;-63
2023/10/10 13:58:46;;;;;;;29.90;11.90;;;;;;;20.59;43.30;99292.27;135795;1277;22534;-63
2023/10/10 14:01:52;;;;;;;31.90;11.80;;;;;;;20.53;43.49;99287.89;135802;1277;22575;-63
2023/10/10 14:05:00;;;;;;;38.60;16.60;;;;;;;20.51;43.48;99287.73;135789;1277;22543;-63
2023/10/10 14:08:03;;;;;;;35.90;15.00;;;;;;;20.52;43.41;99291.05;135765;1257;22557;-63
2023/10/10 14:11:06;;;;;;;40.00;14.90;;;;;;;20.52;43.34;99292.56;135796;1277;22762;-63
2023/10/10 14:14:08;;;;;;;;;;;;;;;20.36;43.75;99290.93;135786;1277;22625;-62
2023/10/10 14:17:12;;;;;;;25.90;10.00;;;;;;;20.29;43.97;99291.27;135757;1277;22538;-63
2023/10/10 14:20:21;;;;;;;29.60;12.00;;;;;;;20.36;43.89;99295.20;135801;1277;22543;-63
2023/10/10 14:23:24;;;;;;;32.70;13.20;;;;;;;20.18;43.93;99295.83;135763;1277;24249;-62
2023/10/10 14:26:30;;;;;;;36.60;15.30;;;;;;;20.18;44.13;99304.16;135740;1277;22558;-64
2023/10/10 14:29:41;;;;;;;33.70;12.70;;;;;;;20.09;44.26;99309.45;135779;1277;22550;-64
2023/10/10 14:32:43;;;;;;;30.40;13.10;;;;;;;20.10;44.06;99315.75;135784;1254;22546;-63
2023/10/10 14:35:46;;;;;;;41.30;17.30;;;;;;;20.01;44.22;99316.59;135785;1277;22637;-63
2023/10/10 14:38:50;;;;;;;33.50;14.50;;;;;;;19.90;44.29;99317.02;135772;1254;22536;-62
2023/10/10 14:41:52;;;;;;;31.60;13.10;;;;;;;19.87;44.46;99309.17;135760;1277;25354;-63
2023/10/10 14:44:55;;;;;;;31.30;13.70;;;;;;;19.68;44.72;99308.87;135766;1277;22522;-63
2023/10/10 14:47:58;;;;;;;;;;;;;;;19.59;44.88;99309.34;135764;1277;22547;-63
2023/10/10 14:51:05;;;;;;;;;;;;;;;19.45;45.15;99307.58;135803;1257;22503;-63
2023/10/10 14:54:09;;;;;;;35.60;15.30;;;;;;;19.36;45.38;99312.30;135749;1277;22545;-63
2023/10/10 14:57:23;;;;;;;31.50;13.30;;;;;;;19.28;45.50;99309.12;135753;1277;22526;-63
2023/10/10 15:00:28;;;;;;;28.20;11.50;;;;;;;19.25;45.52;99304.24;135687;1277;22530;-63
2023/10/10 15:03:40;;;;;;;28.80;10.80;;;;;;;19.03;45.88;99301.08;135750;1277;22682;-63
2023/10/10 15:06:43;;;;;;;29.20;10.50;;;;;;;18.90;46.20;99306.27;135715;1277;24262;-62
2023/10/10 15:09:45;;;;;;;;;;;;;;;18.94;46.12;99304.31;135730;1277;22522;-65
2023/10/10 15:12:49;;;;;;;34.10;14.40;;;;;;;18.90;46.29;99304.65;135740;1277;22581;-63
2023/10/10 15:15:52;;;;;;;40.00;16.60;;;;;;;18.85;46.53;99306.31;135771;1277;22643;-62
2023/10/10 15:18:55;;;;;;;42.00;16.90;;;;;;;19.03;46.12;99302.44;135742;1277;22545;-63
2023/10/10 15:21:58;;;;;;;;;;;;;;;19.01;46.19;99303.54;135723;1277;22504;-63
2023/10/10 15:25:04;;;;;;;34.90;15.30;;;;;;;18.91;46.38;99298.35;135702;1277;22549;-63
2023/10/10 15:28:08;;;;;;;35.10;15.00;;;;;;;18.83;46.46;99298.16;135736;1277;24248;-63
2023/10/10 15:31:12;;;;;;;33.30;14.50;;;;;;;18.76;46.62;99297.54;135765;1277;22594;-64
2023/10/10 15:34:14;;;;;;;35.40;15.30;;;;;;;18.67;46.82;99300.25;135745;1277;22553;-63
2023/10/10 15:37:19;;;;;;;36.70;15.80;;;;;;;18.70;46.96;99308.17;135727;1277;22578;-63
2023/10/10 15:40:21;;;;;;;36.80;16.40;;;;;;;18.74;46.93;99307.29;135744;1277;22527;-63
2023/10/10 15:43:25;;;;;;;;;;;;;;;18.83;47.25;99304.36;135726;1277;22507;-63
2023/10/10 15:46:27;;;;;;;36.60;15.20;;;;;;;19.09;46.42;99306.95;135734;1277;22561;-62
2023/10/10 15:49:31;;;;;;;36.50;15.30;;;;;;;18.84;46.81;99317.39;135750;1277;22533;-63
2023/10/10 15:52:35;;;;;;;35.30;16.30;;;;;;;18.59;47.24;99323.98;135746;1277;22537;-63
2023/10/10 15:55:38;;;;;;;37.50;15.60;;;;;;;18.41;47.81;99325.73;135760;1277;22537;-62
2023/10/10 15:58:42;;;;;;;41.70;17.70;;;;;;;18.43;47.74;99320.23;135698;1277;22548;-63
2023/10/10 16:01:46;;;;;;;58.10;24.10;;;;;;;18.42;48.04;99313.77;135794;1277;22557;-63
2023/10/10 16:04:49;;;;;;;46.30;19.60;;;;;;;18.26;48.28;99314.02;135744;1277;22554;-63
2023/10/10 16:07:51;;;;;;;;;;;;;;;18.17;48.45;99319.82;135784;1277;22558;-63
2023/10/10 16:10:53;;;;;;;39.40;17.60;;;;;;;18.18;48.64;99323.04;135745;1277;22541;-64
2023/10/10 16:13:57;;;;;;;64.00;27.50;;;;;;;18.29;48.27;99323.03;135804;1277;22530;-63
2023/10/10 16:17:02;;;;;;;47.10;19.90;;;;;;;18.39;48.20;99312.61;135770;1277;22652;-63
2023/10/10 16:20:06;;;;;;;48.10;21.00;;;;;;;18.34;48.32;99300.80;135776;1277;22553;-63